Relevés horaires Bierset (Belgique)


Relevés horaires à Bierset - Lundi 18 Mai 2020
Heure UTC1 Température [°C] Vent [km/h] Hum. [%] Pres.4 [hPa] Visi. [Km] Nébu. [octa] Préc.5 [mm] Cond.
2m. Res. Ros. Dir.2 Vit. Moy. Raf.3
23:00 13.0 13 3.4 OSO 5.6 5.6 7.4 52 1023.9(0.4/3h) 30 2/8 -- --
22:00 14.3 14.3 3.5 O 3.7 3.7 5.6 48 1023.8(0.7/3h) 30 2/8 -- --
21:00 15.3 15.3 3.7 ONO 3.7 5.6 11.1 46 1023.7(0.8/3h) 30 2/8 -- --
20:00 16.4 16.4 5.0 O 3.7 3.7 5.6 47 1023.2(0.3/3h) 30 2/8 -- --
19:00 19.1 19.1 5.9 O 3.7 5.6 9.3 42 1022.7(0.1/3h) 30 2/8 -- --
18:00 20.1 20.1 5.0 ONO 5.6 11.1 18.5 37 1022.6(-0.3/3h) 30 2/8 0/12h
--
17:00 22.0 22.0 4.5 ONO 9.3 9.3 13.0 32 1022.5(-0.6/3h) 30 2/8 -- --
16:00 22.5 22.5 7.7 O 7.4 9.3 14.8 39 1022.5(-0.8/3h) 30 1/8 -- --
15:00 22.0 22.0 8.2 O 7.4 11.1 18.5 41 1022.7(-0.9/3h) 30 1/8 -- --
14:00 21.5 21.5 8.5 ONO 9.3 11.1 18.5 43 1023.2(-0.6/3h) 30 1/8 -- --
13:00 20.8 20.8 7.3 O 9.3 9.3 14.8 42 1023.4(-0.9/3h) 30 2/8 -- --
12:00 20.6 20.6 6.2 O 7.4 9.3 14.8 39 1023.7(-0.7/3h) 30 2/8 0/6h
--
11:00 18.8 18.8 6.2 OSO 7.4 9.3 13.0 44 1024.1(-0.3/3h) 30 4/8 -- --
10:00 17.6 17.6 7.7 O 7.4 7.4 11.1 52 1024.6(0.2/3h) 30 6/8 -- --
09:00 16.9 16.9 8.1 O 7.4 7.4 11.1 56 1024.7(0.6/3h) 30 6/8 -- --
08:00 14.4 14.4 7.3 OSO 5.6 7.4 11.1 62 1024.7(0.4/3h) 30 6/8 -- --
07:00 13.0 12.6 6.4 OSO 7.4 7.4 11.1 64 1024.7(0.5/3h) 30 6/8 -- --
06:00 11.3 10.7 4.7 SO 7.4 7.4 14.8 64 1024.6(0.4/3h) 30 3/8 trace/12h
--
05:00 9.7 9.2 5.3 S 5.6 7.4 11.1 74 1024.6(0.0/3h) 30 2/8 -- --
04:00 10.5 10.2 5.5 SO 5.6 5.6 7.4 71 1024.3(-0.3/3h) 30 4/8 -- --
03:00 9.6 9.1 5.7 SSE 5.6 5.6 13.0 77 1024.3(-0.4/3h) 30 5/8 -- --
02:00 10.8 10.8 5.4 SSO 3.7 5.6 7.4 69 1024.5(0.3/3h) 30 3/8 -- --
01:00 10.5 10.5 5.4 SO 3.7 3.7 5.6 71 1024.6(0.3/3h) 30 1/8 -- --
00:00 10.9 10.9 4.5 O 3.7 5.6 9.3 65 1024.6(0.4/3h) 30 1/8 0/6h
0/24h
--

1 Coordinated Universal Time. Actuellement il est 11:00 locale et 09:00 UTC.

2 Le vent souffle depuis la direction indiquée vers la direction oposée.

3 Les rafales max. sont disponible 40 min après l'heure du relevé.

4 Pour les stations d'altitude (plus de 600m) le géopotentiel du niveau le plus proche de la pression obligatoire est indiqué.

5 Les stations disposant d'un diffuseur peuvent indiquer "trace". Cela signifie que des précipitations ont touchés le sol mais que la quantité est inférieure à 0.1 mm.

Récapitulatif de la journée
Température [°C] Vent [km/h] Ensoleillement4 [h] Precipitations totale5 [mm] Pression [Hpa]
Min1 Max.2 Moy.3 Max. Min Max.
9.6 22.8 7.3 18.5 0 h 0 min 0 1022.5 1024.7

1 Température minimale relevée entre 18:00 UTC la veille et 18:00 UTC le jour donné.

2 Température maximale relevée entre 06:00 UTC le jour donné et 06:00 UTC le lendemain.

3 Vent moyen de la journée basé sur les relevés horaires.

4 Ensoleillement en heures relevé entre 06:00 UTC la veille et 06:00 UTC le jour donné.

5 Précipitations totales tombées entre 06:00 UTC la jour donné et 06:00 UTC le lendemain.

Graphiques horaires